Kongen — LCDE — position and weather

sailwx.info

Track history (hours):
 
Tides and Currents Weather Stations Pressure Air Temp Water Temp Dewpoint Dewpoint Depression Visibility Wind Speed Wind Dir Waves Ship Positions

Kongen

Last reported at 2017-Sep-26 21:30 UTC. Time now 2017-Sep-26 21:46 UTC.
Position N 59°52' E 010°40'.

Length 50 m; draft 3.2 m.

Type: Passenger vessel. MMSI: 258509000.

Date/timePositionNaut miles runAvg speedWind from/ knotsBaromVisibWave heightAir tempDewpointWater temp
2017-Sep-26 21:30N 59°52' E 010°40'3 6.2
2017-Sep-26 21:01N 59°55' E 010°44'3 6.3
2017-Sep-26 20:30N 59°52' E 010°39'3 6.3
2017-Sep-26 20:00N 59°55' E 010°44'3 6.3
2017-Sep-26 19:30N 59°52' E 010°39'3 6.2
2017-Sep-26 19:00N 59°55' E 010°44'3 6.4
2017-Sep-26 18:31N 59°52' E 010°40'3 6.1
2017-Sep-26 18:00N 59°55' E 010°44'3 6.4
2017-Sep-26 17:31N 59°52' E 010°40'3 6.2
2017-Sep-26 17:00N 59°55' E 010°44'3 6.5
2017-Sep-26 16:31N 59°52' E 010°39'3 6.2
2017-Sep-26 15:59N 59°55' E 010°44'3 6.6
2017-Sep-26 15:31N 59°52' E 010°39'3 6.2
2017-Sep-26 15:00N 59°55' E 010°44'2 3.4
2017-Sep-26 14:29N 59°53' E 010°41'1 1.6
2017-Sep-26 14:00N 59°54' E 010°42'1 1.4
2017-Sep-26 13:30N 59°54' E 010°41'1 1.6
2017-Sep-26 13:00N 59°54' E 010°42'1 1.9
2017-Sep-26 12:30N 59°55' E 010°44'3 6.4
2017-Sep-26 12:00N 59°52' E 010°39'3 6.4
2017-Sep-26 11:30N 59°55' E 010°44'3 6.4
2017-Sep-26 11:00N 59°52' E 010°39'3 6.2
2017-Sep-26 10:30N 59°55' E 010°44'0 0.0
2017-Sep-26 09:59N 59°55' E 010°44'0 0.0
2017-Sep-26 09:30N 59°55' E 010°44'0 0.0
2017-Sep-26 09:00N 59°55' E 010°44'0 0.0
2017-Sep-26 08:30N 59°55' E 010°44'3 6.4
2017-Sep-26 08:01N 59°52' E 010°39'3 6.2
2017-Sep-26 07:30N 59°55' E 010°44'3 6.5
2017-Sep-26 07:00N 59°52' E 010°39'3 6.4
2017-Sep-26 06:30N 59°55' E 010°44'3 6.4
2017-Sep-26 06:01N 59°52' E 010°39'3 6.3
2017-Sep-26 05:30N 59°55' E 010°44'3 6.4
2017-Sep-26 05:01N 59°52' E 010°39'3 6.2
2017-Sep-26 04:30N 59°55' E 010°44'3 6.5
2017-Sep-26 04:00N 59°52' E 010°39'3 6.3
2017-Sep-26 03:30N 59°55' E 010°44'3 6.5
2017-Sep-26 03:00N 59°52' E 010°39'0 0.0
2017-Sep-26 02:30N 59°52' E 010°39'0 0.0
2017-Sep-26 02:01N 59°52' E 010°39'0 0.0
2017-Sep-26 01:31N 59°52' E 010°39'0 0.0
2017-Sep-26 01:01N 59°52' E 010°39'0 0.0
2017-Sep-26 00:31N 59°52' E 010°39'0 0.0
2017-Sep-26 00:01N 59°52' E 010°39'0 0.0
2017-Sep-25 23:30N 59°52' E 010°39'0 0.0
2017-Sep-25 23:00N 59°52' E 010°39'0 0.0
2017-Sep-25 22:30N 59°52' E 010°39'3 6.2
2017-Sep-25 21:59N 59°55' E 010°44'3 6.5
2017-Sep-25 21:31N 59°52' E 010°39'3 6.3
2017-Sep-25 21:01N 59°55' E 010°44'3 6.3
2017-Sep-25 20:31N 59°52' E 010°40'3 6.2
2017-Sep-25 20:00N 59°55' E 010°44'3 6.3
2017-Sep-25 19:31N 59°52' E 010°40'3 6.1
2017-Sep-25 19:00N 59°55' E 010°44'3 6.4
2017-Sep-25 18:30N 59°52' E 010°40'3 6.1
2017-Sep-25 18:00N 59°55' E 010°44'3 6.4
2017-Sep-25 17:30N 59°52' E 010°40'3 6.2
2017-Sep-25 17:00N 59°55' E 010°44'3 6.4
2017-Sep-25 16:31N 59°52' E 010°39'3 6.1
2017-Sep-25 16:00N 59°55' E 010°44'3 6.5
2017-Sep-25 15:31N 59°52' E 010°39'3 6.2
2017-Sep-25 15:00N 59°55' E 010°44'2 3.5
2017-Sep-25 14:30N 59°54' E 010°41'1 1.7
2017-Sep-25 13:59N 59°54' E 010°43'1 2.1
2017-Sep-25 13:30N 59°53' E 010°41'1 2.1
2017-Sep-25 13:01N 59°54' E 010°42'1 1.7
2017-Sep-25 12:30N 59°55' E 010°44'3 6.4
2017-Sep-25 12:00N 59°52' E 010°39'3 6.1
2017-Sep-25 11:30N 59°55' E 010°44'3 6.6
2017-Sep-25 11:00N 59°52' E 010°39'3 6.4
2017-Sep-25 10:30N 59°55' E 010°44'1 1.2
2017-Sep-25 10:00N 59°54' E 010°43'0 0.0
2017-Sep-25 09:30N 59°54' E 010°43'0 0.0
2017-Sep-25 09:00N 59°54' E 010°43'1 1.1
2017-Sep-25 08:30N 59°54' E 010°44'3 6.0
2017-Sep-25 08:00N 59°52' E 010°39'3 6.6
2017-Sep-25 07:30N 59°55' E 010°44'3 6.3
2017-Sep-25 07:00N 59°52' E 010°39'3 6.4
2017-Sep-25 06:30N 59°55' E 010°44'3 6.4
2017-Sep-25 06:00N 59°52' E 010°39'3 6.3
2017-Sep-25 05:30N 59°55' E 010°44'3 6.3
2017-Sep-25 05:00N 59°52' E 010°39'3 6.2
2017-Sep-25 04:30N 59°55' E 010°44'3 6.4
2017-Sep-25 04:00N 59°52' E 010°39'3 6.2
2017-Sep-25 03:29N 59°55' E 010°44'3 6.6
2017-Sep-25 03:01N 59°52' E 010°39'0 0.0
2017-Sep-25 02:30N 59°52' E 010°39'0 0.0
2017-Sep-25 02:00N 59°52' E 010°39'0 0.0
2017-Sep-25 01:31N 59°52' E 010°39'0 0.0
2017-Sep-25 01:01N 59°52' E 010°39'0 0.0
2017-Sep-25 00:30N 59°52' E 010°39'0 0.0
2017-Sep-25 00:00N 59°52' E 010°39'0 0.0
2017-Sep-24 23:30N 59°52' E 010°39'0 0.0
2017-Sep-24 23:00N 59°52' E 010°39'3 6.2
2017-Sep-24 22:30N 59°55' E 010°44'3 6.4
2017-Sep-24 22:01N 59°52' E 010°40'3 6.2
2017-Sep-24 21:30N 59°55' E 010°44'3 6.3
2017-Sep-24 21:00N 59°52' E 010°39'3 6.2
2017-Sep-24 20:30N 59°55' E 010°44'3 6.4
2017-Sep-24 20:00N 59°52' E 010°39'3 6.3
2017-Sep-24 19:30N 59°55' E 010°44'3 6.3
2017-Sep-24 19:00N 59°52' E 010°40'3 6.1
2017-Sep-24 18:30N 59°55' E 010°44'3 6.4
2017-Sep-24 18:00N 59°52' E 010°40'3 6.1
2017-Sep-24 17:29N 59°55' E 010°44'3 6.5
2017-Sep-24 17:00N 59°52' E 010°39'3 6.4
2017-Sep-24 16:30N 59°55' E 010°44'3 6.3
2017-Sep-24 16:00N 59°52' E 010°39'3 6.2
2017-Sep-24 15:30N 59°55' E 010°44'3 6.5
2017-Sep-24 15:01N 59°52' E 010°39'3 6.3
2017-Sep-24 14:30N 59°55' E 010°44'3 6.4
2017-Sep-24 14:01N 59°52' E 010°39'3 6.2
2017-Sep-24 13:30N 59°55' E 010°44'3 6.4
2017-Sep-24 13:00N 59°52' E 010°39'3 6.3
2017-Sep-24 12:30N 59°55' E 010°44'3 6.5
2017-Sep-24 12:00N 59°52' E 010°39'3 6.2
2017-Sep-24 11:30N 59°55' E 010°44'3 6.5
2017-Sep-24 11:01N 59°52' E 010°39'3 6.2
2017-Sep-24 10:30N 59°55' E 010°44'3 6.5
2017-Sep-24 10:01N 59°52' E 010°39'3 6.1
2017-Sep-24 09:29N 59°55' E 010°44'3 6.5
2017-Sep-24 09:00N 59°52' E 010°39'3 6.3
2017-Sep-24 08:30N 59°55' E 010°44'3 6.4
2017-Sep-24 08:00N 59°52' E 010°39'3 6.4
2017-Sep-24 07:31N 59°55' E 010°44'3 6.3
2017-Sep-24 07:00N 59°52' E 010°39'3 6.4
2017-Sep-24 06:30N 59°55' E 010°44'3 6.4
2017-Sep-24 06:00N 59°52' E 010°39'3 6.2
2017-Sep-24 05:30N 59°55' E 010°44'3 6.5
2017-Sep-24 05:00N 59°52' E 010°39'3 6.2
2017-Sep-24 04:30N 59°55' E 010°44'3 6.5
2017-Sep-24 04:01N 59°52' E 010°39'0 0.0
2017-Sep-24 03:31N 59°52' E 010°39'0 0.0
2017-Sep-24 03:00N 59°52' E 010°39'0 0.0
2017-Sep-24 02:31N 59°52' E 010°39'2 4.6
2017-Sep-24 02:00N 59°52' E 010°44'3 6.0
2017-Sep-24 01:30N 59°55' E 010°44'3 6.3
2017-Sep-24 01:01N 59°52' E 010°40'3 6.2
2017-Sep-24 00:30N 59°55' E 010°44'3 6.3
2017-Sep-24 00:01N 59°52' E 010°40'3 6.1
2017-Sep-23 23:30N 59°55' E 010°44'3 6.4
2017-Sep-23 23:00N 59°52' E 010°39'3 6.5
2017-Sep-23 22:31N 59°55' E 010°44'3 6.3
2017-Sep-23 22:01N 59°52' E 010°39'3 6.2
2017-Sep-23 21:30N 59°55' E 010°44'3 6.4
2017-Sep-23 21:01N 59°52' E 010°39'3 6.1
2017-Sep-23 20:29N 59°55' E 010°44'3 6.4
2017-Sep-23 20:00N 59°52' E 010°40'0 0.0
2017-Sep-22 02:00N 59°52' E 010°39'0 0.0
2017-Sep-22 01:30N 59°52' E 010°39'0 0.0
2017-Sep-22 01:00N 59°52' E 010°39'0 0.0
2017-Sep-22 00:30N 59°52' E 010°39'0 0.0
2017-Sep-22 00:00N 59°52' E 010°39'0 0.0
2017-Sep-21 23:30N 59°52' E 010°39'0 0.0
2017-Sep-21 23:00N 59°52' E 010°39'0 0.0
2017-Sep-21 22:30N 59°52' E 010°39'3 6.3
2017-Sep-21 22:00N 59°55' E 010°44'3 6.5
2017-Sep-21 21:30N 59°52' E 010°39'3 6.2
2017-Sep-21 21:00N 59°55' E 010°44'3 6.4
2017-Sep-21 20:30N 59°52' E 010°39'3 6.2
2017-Sep-21 20:00N 59°55' E 010°44'3 6.3
2017-Sep-21 19:30N 59°52' E 010°39'3 6.3
2017-Sep-21 19:00N 59°55' E 010°44'3 6.3
2017-Sep-21 18:30N 59°52' E 010°39'3 6.2
2017-Sep-21 18:00N 59°55' E 010°44'3 6.5
2017-Sep-21 17:30N 59°52' E 010°39'3 6.3
2017-Sep-21 17:00N 59°55' E 010°44'3 6.5
2017-Sep-21 16:30N 59°52' E 010°39'3 6.4
2017-Sep-21 16:00N 59°55' E 010°44'3 6.4
2017-Sep-21 15:30N 59°52' E 010°39'3 6.3
2017-Sep-21 15:00N 59°55' E 010°44'2 3.6
2017-Sep-21 14:30N 59°53' E 010°41'1 1.8
2017-Sep-21 14:00N 59°54' E 010°42'1 2.0
2017-Sep-21 13:30N 59°53' E 010°41'1 2.3
2017-Sep-21 13:00N 59°54' E 010°43'1 1.6
2017-Sep-21 12:30N 59°55' E 010°44'3 6.5
2017-Sep-21 12:00N 59°52' E 010°39'3 6.4
2017-Sep-21 11:30N 59°55' E 010°44'3 6.4
2017-Sep-21 11:00N 59°52' E 010°39'3 6.3
2017-Sep-21 10:30N 59°55' E 010°44'0 0.1
2017-Sep-21 10:00N 59°55' E 010°44'1 1.2
2017-Sep-21 09:30N 59°54' E 010°43'0 0.0
2017-Sep-21 09:00N 59°54' E 010°43'1 1.1
2017-Sep-21 08:30N 59°54' E 010°44'3 6.1
2017-Sep-21 08:00N 59°52' E 010°39'3 6.4
2017-Sep-21 07:30N 59°55' E 010°44'3 6.4
2017-Sep-21 07:00N 59°52' E 010°39'3 6.2
2017-Sep-21 06:30N 59°55' E 010°44'3 6.6
2017-Sep-21 06:00N 59°52' E 010°39'3 6.4
2017-Sep-21 05:30N 59°55' E 010°44'3 6.4
2017-Sep-21 05:00N 59°52' E 010°39'3 6.4
2017-Sep-21 04:30N 59°55' E 010°44'3 6.4
2017-Sep-21 04:00N 59°52' E 010°39'3 6.2
2017-Sep-21 03:30N 59°55' E 010°44'3 6.5
2017-Sep-21 03:00N 59°52' E 010°39'0 0.0
2017-Sep-21 02:30N 59°52' E 010°39'0 0.0
2017-Sep-21 02:00N 59°52' E 010°39'0 0.0
2017-Sep-21 01:30N 59°52' E 010°39'0 0.0
2017-Sep-21 01:00N 59°52' E 010°39'0 0.0
2017-Sep-21 00:30N 59°52' E 010°39'0 0.0
2017-Sep-21 00:00N 59°52' E 010°39'0 0.0
2017-Sep-20 23:30N 59°52' E 010°39'0 0.0
2017-Sep-20 23:00N 59°52' E 010°39'0 0.0
2017-Sep-20 22:30N 59°52' E 010°39'3 6.2
2017-Sep-20 21:59N 59°55' E 010°44'3 6.5
2017-Sep-20 21:30N 59°52' E 010°40'3 6.2
2017-Sep-20 21:00N 59°55' E 010°44'3 6.3
2017-Sep-20 20:30N 59°52' E 010°40'3 6.3
2017-Sep-20 20:00N 59°55' E 010°44'3 6.3
2017-Sep-20 19:30N 59°52' E 010°39'3 6.2
2017-Sep-20 19:00N 59°55' E 010°44'3 6.4
2017-Sep-20 18:30N 59°52' E 010°40'3 6.1
2017-Sep-20 18:00N 59°55' E 010°44'3 6.4
2017-Sep-20 17:30N 59°52' E 010°39'3 6.2
2017-Sep-20 17:00N 59°55' E 010°44'3 6.4
2017-Sep-20 16:30N 59°52' E 010°40'3 6.2
2017-Sep-20 16:00N 59°55' E 010°44'3 6.5
2017-Sep-20 15:30N 59°52' E 010°39'3 6.2
2017-Sep-20 15:00N 59°55' E 010°44'1 0.9
2017-Sep-20 14:00N 59°54' E 010°42'1 1.8
2017-Sep-20 13:30N 59°53' E 010°41'1 1.8
2017-Sep-20 13:00N 59°54' E 010°42'1 1.7
2017-Sep-20 12:30N 59°55' E 010°44'3 6.6
2017-Sep-20 12:00N 59°52' E 010°39'3 6.2
2017-Sep-20 11:30N 59°55' E 010°44'3 6.4
2017-Sep-20 11:00N 59°52' E 010°39'3 6.4
2017-Sep-20 10:30N 59°55' E 010°44'0 0.0
2017-Sep-20 10:00N 59°55' E 010°44'0 0.0
2017-Sep-20 09:30N 59°55' E 010°44'0 0.0
2017-Sep-20 09:00N 59°55' E 010°44'0 0.0
2017-Sep-20 08:30N 59°55' E 010°44'3 6.4
2017-Sep-20 08:01N 59°52' E 010°39'3 6.2
2017-Sep-20 07:30N 59°55' E 010°44'3 6.5
2017-Sep-20 07:01N 59°52' E 010°39'3 6.3
2017-Sep-20 06:30N 59°55' E 010°44'3 6.5
2017-Sep-20 06:01N 59°52' E 010°39'3 6.2
2017-Sep-20 05:29N 59°55' E 010°44'3 6.6
2017-Sep-20 05:01N 59°52' E 010°39'3 6.2
2017-Sep-20 04:30N 59°55' E 010°44'3 6.4
2017-Sep-20 04:00N 59°52' E 010°39'3 6.2
2017-Sep-20 03:30N 59°55' E 010°44'3 6.5
2017-Sep-20 03:01N 59°52' E 010°39'0 0.0
2017-Sep-20 02:30N 59°52' E 010°39'0 0.0
2017-Sep-20 02:00N 59°52' E 010°39'0 0.0
2017-Sep-20 01:30N 59°52' E 010°39'0 0.0
2017-Sep-20 01:00N 59°52' E 010°39'0 0.0
2017-Sep-20 00:30N 59°52' E 010°39'0 0.0
2017-Sep-20 00:00N 59°52' E 010°39'0 0.0
2017-Sep-19 23:30N 59°52' E 010°39'0 0.0
2017-Sep-19 23:00N 59°52' E 010°39'0 0.0
2017-Sep-19 22:30N 59°52' E 010°39'3 6.3
2017-Sep-19 22:00N 59°55' E 010°44'3 6.5
2017-Sep-19 21:30N 59°52' E 010°39'3 6.3
2017-Sep-19 21:00N 59°55' E 010°44'3 6.5
2017-Sep-19 20:30N 59°52' E 010°39'3 6.3
2017-Sep-19 20:00N 59°55' E 010°44'3 6.5
2017-Sep-19 19:30N 59°52' E 010°39'3 6.3
2017-Sep-19 19:00N 59°55' E 010°44'3 6.5
2017-Sep-19 18:30N 59°52' E 010°39'3 6.4
2017-Sep-19 18:00N 59°55' E 010°44'3 6.4
2017-Sep-19 17:30N 59°52' E 010°39'3 6.3
2017-Sep-19 17:00N 59°55' E 010°44'3 6.5
2017-Sep-19 16:30N 59°52' E 010°39'3 6.4
2017-Sep-19 16:00N 59°55' E 010°44'3 6.4
2017-Sep-19 15:30N 59°52' E 010°39'3 6.3
2017-Sep-19 15:00N 59°55' E 010°44'2 3.7
2017-Sep-19 14:30N 59°53' E 010°41'1 1.8
2017-Sep-19 14:00N 59°54' E 010°42'1 1.4
2017-Sep-19 13:30N 59°54' E 010°41'1 1.2
2017-Sep-19 13:00N 59°54' E 010°42'1 2.1
2017-Sep-19 12:30N 59°55' E 010°44'3 6.5
2017-Sep-19 12:00N 59°52' E 010°39'3 6.2
2017-Sep-19 11:29N 59°55' E 010°44'3 6.5
2017-Sep-19 11:00N 59°52' E 010°39'3 6.3
2017-Sep-19 10:30N 59°55' E 010°44'0 0.0
2017-Sep-19 09:59N 59°55' E 010°44'0 0.0
2017-Sep-19 09:29N 59°55' E 010°44'0 0.0
2017-Sep-19 08:59N 59°55' E 010°44'0 0.0
2017-Sep-19 08:30N 59°55' E 010°44'3 6.3
2017-Sep-19 08:00N 59°52' E 010°39'3 6.2
2017-Sep-19 07:29N 59°55' E 010°44'3 6.6
2017-Sep-19 07:00N 59°52' E 010°39'3 6.3
2017-Sep-19 06:30N 59°55' E 010°44'3 6.4
2017-Sep-19 06:00N 59°52' E 010°39'3 6.2
2017-Sep-19 05:29N 59°55' E 010°44'3 6.6
2017-Sep-19 05:00N 59°52' E 010°39'3 6.3
2017-Sep-19 04:30N 59°55' E 010°44'3 6.4
2017-Sep-19 04:00N 59°52' E 010°39'3 6.2
2017-Sep-19 03:30N 59°55' E 010°44'3 6.5
2017-Sep-19 03:00N 59°52' E 010°39'0 0.0
2017-Sep-19 02:30N 59°52' E 010°39'0 0.0
2017-Sep-19 02:00N 59°52' E 010°39'0 0.0
2017-Sep-19 01:30N 59°52' E 010°39'0 0.0
2017-Sep-19 01:00N 59°52' E 010°39'0 0.0
2017-Sep-19 00:30N 59°52' E 010°39'0 0.0
2017-Sep-19 00:00N 59°52' E 010°39'0 0.0
2017-Sep-18 23:30N 59°52' E 010°39'0 0.0
2017-Sep-18 23:00N 59°52' E 010°39'0 0.0
2017-Sep-18 22:30N 59°52' E 010°39'3 6.4
2017-Sep-18 22:00N 59°55' E 010°44'3 6.4
2017-Sep-18 21:30N 59°52' E 010°39'3 6.4
2017-Sep-18 21:00N 59°55' E 010°44'3 6.4
2017-Sep-18 20:30N 59°52' E 010°39'3 6.2
2017-Sep-18 20:00N 59°55' E 010°44'3 6.6
2017-Sep-18 19:30N 59°52' E 010°39'3 6.2
2017-Sep-18 19:00N 59°55' E 010°44'3 6.6
2017-Sep-18 18:30N 59°52' E 010°39'3 6.2
2017-Sep-18 18:00N 59°55' E 010°44'3 6.5
2017-Sep-18 17:30N 59°52' E 010°39'3 6.2
2017-Sep-18 17:00N 59°55' E 010°44'3 6.5
2017-Sep-18 16:30N 59°52' E 010°39'3 6.4
2017-Sep-18 16:00N 59°55' E 010°44'3 6.4
2017-Sep-18 15:30N 59°52' E 010°39'3 6.2
2017-Sep-18 15:00N 59°55' E 010°44'2 3.3
2017-Sep-18 14:30N 59°54' E 010°41'1 1.4
2017-Sep-18 14:00N 59°54' E 010°42'1 1.4
2017-Sep-18 13:30N 59°54' E 010°41'1 1.4
2017-Sep-18 13:00N 59°54' E 010°42'1 1.9
2017-Sep-18 12:30N 59°55' E 010°44'3 6.4
2017-Sep-18 12:00N 59°52' E 010°39'3 6.1
2017-Sep-18 11:29N 59°55' E 010°44'3 6.6
2017-Sep-18 11:00N 59°52' E 010°39'3 6.1
2017-Sep-18 10:29N 59°55' E 010°44'0 0.0
2017-Sep-18 10:00N 59°55' E 010°44'1 1.2
2017-Sep-18 09:30N 59°54' E 010°43'0 0.0
2017-Sep-18 09:00N 59°54' E 010°43'0 0.4
2017-Sep-18 08:30N 59°54' E 010°43'3 5.2
2017-Sep-18 08:00N 59°52' E 010°39'3 6.3
2017-Sep-18 07:30N 59°55' E 010°44'3 6.4
2017-Sep-18 07:00N 59°52' E 010°39'3 6.3
2017-Sep-18 06:30N 59°55' E 010°44'3 6.4
2017-Sep-18 06:00N 59°52' E 010°39'3 6.3
2017-Sep-18 05:30N 59°55' E 010°44'3 6.5
2017-Sep-18 05:00N 59°52' E 010°39'3 6.3
2017-Sep-18 04:30N 59°55' E 010°44'3 6.4
2017-Sep-18 04:00N 59°52' E 010°39'3 6.3
2017-Sep-18 03:30N 59°55' E 010°44'3 6.4
2017-Sep-18 03:00N 59°52' E 010°39'0 0.0
2017-Sep-18 02:31N 59°52' E 010°39'0 0.0
2017-Sep-18 02:01N 59°52' E 010°39'0 0.0
2017-Sep-18 01:31N 59°52' E 010°39'0 0.0
2017-Sep-18 01:01N 59°52' E 010°39'0 0.0
2017-Sep-18 00:31N 59°52' E 010°39'0 0.0
2017-Sep-18 00:01N 59°52' E 010°39'2 4.6
2017-Sep-17 23:30N 59°54' E 010°43'2 4.9
2017-Sep-17 23:01N 59°52' E 010°39'3 6.3
2017-Sep-17 22:30N 59°55' E 010°44'3 6.4
2017-Sep-17 22:00N 59°52' E 010°39'3 6.3
2017-Sep-17 21:30N 59°55' E 010°44'3 6.5
2017-Sep-17 21:01N 59°52' E 010°39'3 6.2
2017-Sep-17 20:30N 59°55' E 010°44'3 6.6
2017-Sep-17 20:00N 59°52' E 010°39'3 6.4
2017-Sep-17 19:30N 59°55' E 010°44'3 6.4
2017-Sep-17 19:00N 59°52' E 010°39'3 6.3
2017-Sep-17 18:30N 59°55' E 010°44'3 6.5
2017-Sep-17 18:01N 59°52' E 010°39'3 6.2
2017-Sep-17 17:30N 59°55' E 010°44'3 6.5
2017-Sep-17 17:00N 59°52' E 010°39'3 6.4
2017-Sep-17 16:30N 59°55' E 010°44'3 6.4
2017-Sep-17 16:01N 59°52' E 010°39'3 6.4
2017-Sep-17 15:31N 59°55' E 010°44'3 6.4
2017-Sep-17 15:01N 59°52' E 010°39'3 6.3
2017-Sep-17 14:30N 59°55' E 010°44'3 6.5
2017-Sep-17 14:01N 59°52' E 010°39'3 6.3
2017-Sep-17 13:30N 59°55' E 010°44'3 6.5
2017-Sep-17 13:00N 59°52' E 010°39'3 6.2
2017-Sep-17 12:30N 59°55' E 010°44'3 6.5
2017-Sep-17 12:00N 59°52' E 010°39'3 6.2
2017-Sep-17 11:30N 59°55' E 010°44'3 6.6
2017-Sep-17 11:01N 59°52' E 010°39'3 6.3
2017-Sep-17 10:30N 59°55' E 010°44'3 6.5
2017-Sep-17 10:00N 59°52' E 010°39'3 6.4
2017-Sep-17 09:31N 59°55' E 010°44'3 6.3
2017-Sep-17 09:00N 59°52' E 010°39'3 6.3
2017-Sep-17 08:30N 59°55' E 010°44'3 6.5
2017-Sep-17 08:01N 59°52' E 010°39'3 6.3
2017-Sep-17 07:30N 59°55' E 010°44'3 6.4
2017-Sep-17 07:01N 59°52' E 010°39'3 6.3
2017-Sep-17 06:30N 59°55' E 010°44'3 6.4
2017-Sep-17 06:01N 59°52' E 010°39'3 6.2
2017-Sep-17 05:29N 59°55' E 010°44'3 6.6
2017-Sep-17 05:01N 59°52' E 010°39'3 6.4
2017-Sep-17 04:31N 59°55' E 010°44'3 6.4
2017-Sep-17 04:00N 59°52' E 010°39'0 0.0
2017-Sep-17 03:29N 59°52' E 010°39'0 0.0
2017-Sep-17 02:59N 59°52' E 010°39'0 0.0
2017-Sep-17 02:29N 59°52' E 010°39'0 0.0
2017-Sep-17 01:59N 59°52' E 010°39'3 6.5
2017-Sep-17 01:30N 59°55' E 010°44'3 6.6
2017-Sep-17 01:00N 59°52' E 010°39'3 6.3
2017-Sep-17 00:30N 59°55' E 010°44'3 6.5
2017-Sep-17 00:00N 59°52' E 010°39'3 6.3
2017-Sep-16 23:30N 59°55' E 010°44'3 6.5
2017-Sep-16 23:01N 59°52' E 010°39'3 6.2
2017-Sep-16 22:30N 59°55' E 010°44'3 6.5
2017-Sep-16 22:00N 59°52' E 010°39'  
Track history (hours):
 
Tides and Currents Weather Stations Pressure Air Temp Water Temp Dewpoint Dewpoint Depression Visibility Wind Speed Wind Dir Waves Ship Positions

Kongen

Last reported at 2017-Sep-26 21:30 UTC. Time now 2017-Sep-26 21:46 UTC.
Position N 59°52' E 010°40'.

Length 50 m; draft 3.2 m.

Type: Passenger vessel. MMSI: 258509000.

Date/timePositionNaut miles runAvg speedWind from/ knotsBaromVisibWave heightAir tempDewpointWater temp
2017-Sep-26 21:30N 59°52' E 010°40'3 6.2
2017-Sep-26 21:01N 59°55' E 010°44'3 6.3
2017-Sep-26 20:30N 59°52' E 010°39'3 6.3
2017-Sep-26 20:00N 59°55' E 010°44'3 6.3
2017-Sep-26 19:30N 59°52' E 010°39'3 6.2
2017-Sep-26 19:00N 59°55' E 010°44'3 6.4
2017-Sep-26 18:31N 59°52' E 010°40'3 6.1
2017-Sep-26 18:00N 59°55' E 010°44'3 6.4
2017-Sep-26 17:31N 59°52' E 010°40'3 6.2
2017-Sep-26 17:00N 59°55' E 010°44'3 6.5
2017-Sep-26 16:31N 59°52' E 010°39'3 6.2
2017-Sep-26 15:59N 59°55' E 010°44'3 6.6
2017-Sep-26 15:31N 59°52' E 010°39'3 6.2
2017-Sep-26 15:00N 59°55' E 010°44'2 3.4
2017-Sep-26 14:29N 59°53' E 010°41'1 1.6
2017-Sep-26 14:00N 59°54' E 010°42'1 1.4
2017-Sep-26 13:30N 59°54' E 010°41'1 1.6
2017-Sep-26 13:00N 59°54' E 010°42'1 1.9
2017-Sep-26 12:30N 59°55' E 010°44'3 6.4
2017-Sep-26 12:00N 59°52' E 010°39'3 6.4
2017-Sep-26 11:30N 59°55' E 010°44'3 6.4
2017-Sep-26 11:00N 59°52' E 010°39'3 6.2
2017-Sep-26 10:30N 59°55' E 010°44'0 0.0
2017-Sep-26 09:59N 59°55' E 010°44'0 0.0
2017-Sep-26 09:30N 59°55' E 010°44'0 0.0
2017-Sep-26 09:00N 59°55' E 010°44'0 0.0
2017-Sep-26 08:30N 59°55' E 010°44'3 6.4
2017-Sep-26 08:01N 59°52' E 010°39'3 6.2
2017-Sep-26 07:30N 59°55' E 010°44'3 6.5
2017-Sep-26 07:00N 59°52' E 010°39'3 6.4
2017-Sep-26 06:30N 59°55' E 010°44'3 6.4
2017-Sep-26 06:01N 59°52' E 010°39'3 6.3
2017-Sep-26 05:30N 59°55' E 010°44'3 6.4
2017-Sep-26 05:01N 59°52' E 010°39'3 6.2
2017-Sep-26 04:30N 59°55' E 010°44'3 6.5
2017-Sep-26 04:00N 59°52' E 010°39'3 6.3
2017-Sep-26 03:30N 59°55' E 010°44'3 6.5
2017-Sep-26 03:00N 59°52' E 010°39'0 0.0
2017-Sep-26 02:30N 59°52' E 010°39'0 0.0
2017-Sep-26 02:01N 59°52' E 010°39'0 0.0
2017-Sep-26 01:31N 59°52' E 010°39'0 0.0
2017-Sep-26 01:01N 59°52' E 010°39'0 0.0
2017-Sep-26 00:31N 59°52' E 010°39'0 0.0
2017-Sep-26 00:01N 59°52' E 010°39'0 0.0
2017-Sep-25 23:30N 59°52' E 010°39'0 0.0
2017-Sep-25 23:00N 59°52' E 010°39'0 0.0
2017-Sep-25 22:30N 59°52' E 010°39'3 6.2
2017-Sep-25 21:59N 59°55' E 010°44'3 6.5
2017-Sep-25 21:31N 59°52' E 010°39'3 6.3
2017-Sep-25 21:01N 59°55' E 010°44'3 6.3
2017-Sep-25 20:31N 59°52' E 010°40'3 6.2
2017-Sep-25 20:00N 59°55' E 010°44'3 6.3
2017-Sep-25 19:31N 59°52' E 010°40'3 6.1
2017-Sep-25 19:00N 59°55' E 010°44'3 6.4
2017-Sep-25 18:30N 59°52' E 010°40'3 6.1
2017-Sep-25 18:00N 59°55' E 010°44'3 6.4
2017-Sep-25 17:30N 59°52' E 010°40'3 6.2
2017-Sep-25 17:00N 59°55' E 010°44'3 6.4
2017-Sep-25 16:31N 59°52' E 010°39'3 6.1
2017-Sep-25 16:00N 59°55' E 010°44'3 6.5
2017-Sep-25 15:31N 59°52' E 010°39'3 6.2
2017-Sep-25 15:00N 59°55' E 010°44'2 3.5
2017-Sep-25 14:30N 59°54' E 010°41'1 1.7
2017-Sep-25 13:59N 59°54' E 010°43'1 2.1
2017-Sep-25 13:30N 59°53' E 010°41'1 2.1
2017-Sep-25 13:01N 59°54' E 010°42'1 1.7
2017-Sep-25 12:30N 59°55' E 010°44'3 6.4
2017-Sep-25 12:00N 59°52' E 010°39'3 6.1
2017-Sep-25 11:30N 59°55' E 010°44'3 6.6
2017-Sep-25 11:00N 59°52' E 010°39'3 6.4
2017-Sep-25 10:30N 59°55' E 010°44'1 1.2
2017-Sep-25 10:00N 59°54' E 010°43'0 0.0
2017-Sep-25 09:30N 59°54' E 010°43'0 0.0
2017-Sep-25 09:00N 59°54' E 010°43'1 1.1
2017-Sep-25 08:30N 59°54' E 010°44'3 6.0
2017-Sep-25 08:00N 59°52' E 010°39'3 6.6
2017-Sep-25 07:30N 59°55' E 010°44'3 6.3
2017-Sep-25 07:00N 59°52' E 010°39'3 6.4
2017-Sep-25 06:30N 59°55' E 010°44'3 6.4
2017-Sep-25 06:00N 59°52' E 010°39'3 6.3
2017-Sep-25 05:30N 59°55' E 010°44'3 6.3
2017-Sep-25 05:00N 59°52' E 010°39'3 6.2
2017-Sep-25 04:30N 59°55' E 010°44'3 6.4
2017-Sep-25 04:00N 59°52' E 010°39'3 6.2
2017-Sep-25 03:29N 59°55' E 010°44'3 6.6
2017-Sep-25 03:01N 59°52' E 010°39'0 0.0
2017-Sep-25 02:30N 59°52' E 010°39'0 0.0
2017-Sep-25 02:00N 59°52' E 010°39'0 0.0
2017-Sep-25 01:31N 59°52' E 010°39'0 0.0
2017-Sep-25 01:01N 59°52' E 010°39'0 0.0
2017-Sep-25 00:30N 59°52' E 010°39'0 0.0
2017-Sep-25 00:00N 59°52' E 010°39'0 0.0
2017-Sep-24 23:30N 59°52' E 010°39'0 0.0
2017-Sep-24 23:00N 59°52' E 010°39'3 6.2
2017-Sep-24 22:30N 59°55' E 010°44'3 6.4
2017-Sep-24 22:01N 59°52' E 010°40'3 6.2
2017-Sep-24 21:30N 59°55' E 010°44'3 6.3
2017-Sep-24 21:00N 59°52' E 010°39'3 6.2
2017-Sep-24 20:30N 59°55' E 010°44'3 6.4
2017-Sep-24 20:00N 59°52' E 010°39'3 6.3
2017-Sep-24 19:30N 59°55' E 010°44'3 6.3
2017-Sep-24 19:00N 59°52' E 010°40'3 6.1
2017-Sep-24 18:30N 59°55' E 010°44'3 6.4
2017-Sep-24 18:00N 59°52' E 010°40'3 6.1
2017-Sep-24 17:29N 59°55' E 010°44'3 6.5
2017-Sep-24 17:00N 59°52' E 010°39'3 6.4
2017-Sep-24 16:30N 59°55' E 010°44'3 6.3
2017-Sep-24 16:00N 59°52' E 010°39'3 6.2
2017-Sep-24 15:30N 59°55' E 010°44'3 6.5
2017-Sep-24 15:01N 59°52' E 010°39'3 6.3
2017-Sep-24 14:30N 59°55' E 010°44'3 6.4
2017-Sep-24 14:01N 59°52' E 010°39'3 6.2
2017-Sep-24 13:30N 59°55' E 010°44'3 6.4
2017-Sep-24 13:00N 59°52' E 010°39'3 6.3
2017-Sep-24 12:30N 59°55' E 010°44'3 6.5
2017-Sep-24 12:00N 59°52' E 010°39'3 6.2
2017-Sep-24 11:30N 59°55' E 010°44'3 6.5
2017-Sep-24 11:01N 59°52' E 010°39'3 6.2
2017-Sep-24 10:30N 59°55' E 010°44'3 6.5
2017-Sep-24 10:01N 59°52' E 010°39'3 6.1
2017-Sep-24 09:29N 59°55' E 010°44'3 6.5
2017-Sep-24 09:00N 59°52' E 010°39'3 6.3
2017-Sep-24 08:30N 59°55' E 010°44'3 6.4
2017-Sep-24 08:00N 59°52' E 010°39'3 6.4
2017-Sep-24 07:31N 59°55' E 010°44'3 6.3
2017-Sep-24 07:00N 59°52' E 010°39'3 6.4
2017-Sep-24 06:30N 59°55' E 010°44'3 6.4
2017-Sep-24 06:00N 59°52' E 010°39'3 6.2
2017-Sep-24 05:30N 59°55' E 010°44'3 6.5
2017-Sep-24 05:00N 59°52' E 010°39'3 6.2
2017-Sep-24 04:30N 59°55' E 010°44'3 6.5
2017-Sep-24 04:01N 59°52' E 010°39'0 0.0
2017-Sep-24 03:31N 59°52' E 010°39'0 0.0
2017-Sep-24 03:00N 59°52' E 010°39'0 0.0
2017-Sep-24 02:31N 59°52' E 010°39'2 4.6
2017-Sep-24 02:00N 59°52' E 010°44'3 6.0
2017-Sep-24 01:30N 59°55' E 010°44'3 6.3
2017-Sep-24 01:01N 59°52' E 010°40'3 6.2
2017-Sep-24 00:30N 59°55' E 010°44'3 6.3
2017-Sep-24 00:01N 59°52' E 010°40'3 6.1
2017-Sep-23 23:30N 59°55' E 010°44'3 6.4
2017-Sep-23 23:00N 59°52' E 010°39'3 6.5
2017-Sep-23 22:31N 59°55' E 010°44'3 6.3
2017-Sep-23 22:01N 59°52' E 010°39'3 6.2
2017-Sep-23 21:30N 59°55' E 010°44'3 6.4
2017-Sep-23 21:01N 59°52' E 010°39'3 6.1
2017-Sep-23 20:29N 59°55' E 010°44'3 6.4
2017-Sep-23 20:00N 59°52' E 010°40'0 0.0
2017-Sep-22 02:00N 59°52' E 010°39'0 0.0
2017-Sep-22 01:30N 59°52' E 010°39'0 0.0
2017-Sep-22 01:00N 59°52' E 010°39'0 0.0
2017-Sep-22 00:30N 59°52' E 010°39'0 0.0
2017-Sep-22 00:00N 59°52' E 010°39'0 0.0
2017-Sep-21 23:30N 59°52' E 010°39'0 0.0
2017-Sep-21 23:00N 59°52' E 010°39'0 0.0
2017-Sep-21 22:30N 59°52' E 010°39'3 6.3
2017-Sep-21 22:00N 59°55' E 010°44'3 6.5
2017-Sep-21 21:30N 59°52' E 010°39'3 6.2
2017-Sep-21 21:00N 59°55' E 010°44'3 6.4
2017-Sep-21 20:30N 59°52' E 010°39'3 6.2
2017-Sep-21 20:00N 59°55' E 010°44'3 6.3
2017-Sep-21 19:30N 59°52' E 010°39'3 6.3
2017-Sep-21 19:00N 59°55' E 010°44'3 6.3
2017-Sep-21 18:30N 59°52' E 010°39'3 6.2
2017-Sep-21 18:00N 59°55' E 010°44'3 6.5
2017-Sep-21 17:30N 59°52' E 010°39'3 6.3
2017-Sep-21 17:00N 59°55' E 010°44'3 6.5
2017-Sep-21 16:30N 59°52' E 010°39'3 6.4
2017-Sep-21 16:00N 59°55' E 010°44'3 6.4
2017-Sep-21 15:30N 59°52' E 010°39'3 6.3
2017-Sep-21 15:00N 59°55' E 010°44'2 3.6
2017-Sep-21 14:30N 59°53' E 010°41'1 1.8
2017-Sep-21 14:00N 59°54' E 010°42'1 2.0
2017-Sep-21 13:30N 59°53' E 010°41'1 2.3
2017-Sep-21 13:00N 59°54' E 010°43'1 1.6
2017-Sep-21 12:30N 59°55' E 010°44'3 6.5
2017-Sep-21 12:00N 59°52' E 010°39'3 6.4
2017-Sep-21 11:30N 59°55' E 010°44'3 6.4
2017-Sep-21 11:00N 59°52' E 010°39'3 6.3
2017-Sep-21 10:30N 59°55' E 010°44'0 0.1
2017-Sep-21 10:00N 59°55' E 010°44'1 1.2
2017-Sep-21 09:30N 59°54' E 010°43'0 0.0
2017-Sep-21 09:00N 59°54' E 010°43'1 1.1
2017-Sep-21 08:30N 59°54' E 010°44'3 6.1
2017-Sep-21 08:00N 59°52' E 010°39'3 6.4
2017-Sep-21 07:30N 59°55' E 010°44'3 6.4
2017-Sep-21 07:00N 59°52' E 010°39'3 6.2
2017-Sep-21 06:30N 59°55' E 010°44'3 6.6
2017-Sep-21 06:00N 59°52' E 010°39'3 6.4
2017-Sep-21 05:30N 59°55' E 010°44'3 6.4
2017-Sep-21 05:00N 59°52' E 010°39'3 6.4
2017-Sep-21 04:30N 59°55' E 010°44'3 6.4
2017-Sep-21 04:00N 59°52' E 010°39'3 6.2
2017-Sep-21 03:30N 59°55' E 010°44'3 6.5
2017-Sep-21 03:00N 59°52' E 010°39'0 0.0
2017-Sep-21 02:30N 59°52' E 010°39'0 0.0
2017-Sep-21 02:00N 59°52' E 010°39'0 0.0
2017-Sep-21 01:30N 59°52' E 010°39'0 0.0
2017-Sep-21 01:00N 59°52' E 010°39'0 0.0
2017-Sep-21 00:30N 59°52' E 010°39'0 0.0
2017-Sep-21 00:00N 59°52' E 010°39'0 0.0
2017-Sep-20 23:30N 59°52' E 010°39'0 0.0
2017-Sep-20 23:00N 59°52' E 010°39'0 0.0
2017-Sep-20 22:30N 59°52' E 010°39'3 6.2
2017-Sep-20 21:59N 59°55' E 010°44'3 6.5
2017-Sep-20 21:30N 59°52' E 010°40'3 6.2
2017-Sep-20 21:00N 59°55' E 010°44'3 6.3
2017-Sep-20 20:30N 59°52' E 010°40'3 6.3
2017-Sep-20 20:00N 59°55' E 010°44'3 6.3
2017-Sep-20 19:30N 59°52' E 010°39'3 6.2
2017-Sep-20 19:00N 59°55' E 010°44'3 6.4
2017-Sep-20 18:30N 59°52' E 010°40'3 6.1
2017-Sep-20 18:00N 59°55' E 010°44'3 6.4
2017-Sep-20 17:30N 59°52' E 010°39'3 6.2
2017-Sep-20 17:00N 59°55' E 010°44'3 6.4
2017-Sep-20 16:30N 59°52' E 010°40'3 6.2
2017-Sep-20 16:00N 59°55' E 010°44'3 6.5
2017-Sep-20 15:30N 59°52' E 010°39'3 6.2
2017-Sep-20 15:00N 59°55' E 010°44'1 0.9
2017-Sep-20 14:00N 59°54' E 010°42'1 1.8
2017-Sep-20 13:30N 59°53' E 010°41'1 1.8
2017-Sep-20 13:00N 59°54' E 010°42'1 1.7
2017-Sep-20 12:30N 59°55' E 010°44'3 6.6
2017-Sep-20 12:00N 59°52' E 010°39'3 6.2
2017-Sep-20 11:30N 59°55' E 010°44'3 6.4
2017-Sep-20 11:00N 59°52' E 010°39'3 6.4
2017-Sep-20 10:30N 59°55' E 010°44'0 0.0
2017-Sep-20 10:00N 59°55' E 010°44'0 0.0
2017-Sep-20 09:30N 59°55' E 010°44'0 0.0
2017-Sep-20 09:00N 59°55' E 010°44'0 0.0
2017-Sep-20 08:30N 59°55' E 010°44'3 6.4
2017-Sep-20 08:01N 59°52' E 010°39'3 6.2
2017-Sep-20 07:30N 59°55' E 010°44'3 6.5
2017-Sep-20 07:01N 59°52' E 010°39'3 6.3
2017-Sep-20 06:30N 59°55' E 010°44'3 6.5
2017-Sep-20 06:01N 59°52' E 010°39'3 6.2
2017-Sep-20 05:29N 59°55' E 010°44'3 6.6
2017-Sep-20 05:01N 59°52' E 010°39'3 6.2
2017-Sep-20 04:30N 59°55' E 010°44'3 6.4
2017-Sep-20 04:00N 59°52' E 010°39'3 6.2
2017-Sep-20 03:30N 59°55' E 010°44'3 6.5
2017-Sep-20 03:01N 59°52' E 010°39'0 0.0
2017-Sep-20 02:30N 59°52' E 010°39'0 0.0
2017-Sep-20 02:00N 59°52' E 010°39'0 0.0
2017-Sep-20 01:30N 59°52' E 010°39'0 0.0
2017-Sep-20 01:00N 59°52' E 010°39'0 0.0
2017-Sep-20 00:30N 59°52' E 010°39'0 0.0
2017-Sep-20 00:00N 59°52' E 010°39'0 0.0
2017-Sep-19 23:30N 59°52' E 010°39'0 0.0
2017-Sep-19 23:00N 59°52' E 010°39'0 0.0
2017-Sep-19 22:30N 59°52' E 010°39'3 6.3
2017-Sep-19 22:00N 59°55' E 010°44'3 6.5
2017-Sep-19 21:30N 59°52' E 010°39'3 6.3
2017-Sep-19 21:00N 59°55' E 010°44'3 6.5
2017-Sep-19 20:30N 59°52' E 010°39'3 6.3
2017-Sep-19 20:00N 59°55' E 010°44'3 6.5
2017-Sep-19 19:30N 59°52' E 010°39'3 6.3
2017-Sep-19 19:00N 59°55' E 010°44'3 6.5
2017-Sep-19 18:30N 59°52' E 010°39'3 6.4
2017-Sep-19 18:00N 59°55' E 010°44'3 6.4
2017-Sep-19 17:30N 59°52' E 010°39'3 6.3
2017-Sep-19 17:00N 59°55' E 010°44'3 6.5
2017-Sep-19 16:30N 59°52' E 010°39'3 6.4
2017-Sep-19 16:00N 59°55' E 010°44'3 6.4
2017-Sep-19 15:30N 59°52' E 010°39'3 6.3
2017-Sep-19 15:00N 59°55' E 010°44'2 3.7
2017-Sep-19 14:30N 59°53' E 010°41'1 1.8
2017-Sep-19 14:00N 59°54' E 010°42'1 1.4
2017-Sep-19 13:30N 59°54' E 010°41'1 1.2
2017-Sep-19 13:00N 59°54' E 010°42'1 2.1
2017-Sep-19 12:30N 59°55' E 010°44'3 6.5
2017-Sep-19 12:00N 59°52' E 010°39'3 6.2
2017-Sep-19 11:29N 59°55' E 010°44'3 6.5
2017-Sep-19 11:00N 59°52' E 010°39'3 6.3
2017-Sep-19 10:30N 59°55' E 010°44'0 0.0
2017-Sep-19 09:59N 59°55' E 010°44'0 0.0
2017-Sep-19 09:29N 59°55' E 010°44'0 0.0
2017-Sep-19 08:59N 59°55' E 010°44'0 0.0
2017-Sep-19 08:30N 59°55' E 010°44'3 6.3
2017-Sep-19 08:00N 59°52' E 010°39'3 6.2
2017-Sep-19 07:29N 59°55' E 010°44'3 6.6
2017-Sep-19 07:00N 59°52' E 010°39'3 6.3
2017-Sep-19 06:30N 59°55' E 010°44'3 6.4
2017-Sep-19 06:00N 59°52' E 010°39'3 6.2
2017-Sep-19 05:29N 59°55' E 010°44'3 6.6
2017-Sep-19 05:00N 59°52' E 010°39'3 6.3
2017-Sep-19 04:30N 59°55' E 010°44'3 6.4
2017-Sep-19 04:00N 59°52' E 010°39'3 6.2
2017-Sep-19 03:30N 59°55' E 010°44'3 6.5
2017-Sep-19 03:00N 59°52' E 010°39'0 0.0
2017-Sep-19 02:30N 59°52' E 010°39'0 0.0
2017-Sep-19 02:00N 59°52' E 010°39'0 0.0
2017-Sep-19 01:30N 59°52' E 010°39'0 0.0
2017-Sep-19 01:00N 59°52' E 010°39'0 0.0
2017-Sep-19 00:30N 59°52' E 010°39'0 0.0
2017-Sep-19 00:00N 59°52' E 010°39'0 0.0
2017-Sep-18 23:30N 59°52' E 010°39'0 0.0
2017-Sep-18 23:00N 59°52' E 010°39'0 0.0
2017-Sep-18 22:30N 59°52' E 010°39'3 6.4
2017-Sep-18 22:00N 59°55' E 010°44'3 6.4
2017-Sep-18 21:30N 59°52' E 010°39'3 6.4
2017-Sep-18 21:00N 59°55' E 010°44'3 6.4
2017-Sep-18 20:30N 59°52' E 010°39'3 6.2
2017-Sep-18 20:00N 59°55' E 010°44'3 6.6
2017-Sep-18 19:30N 59°52' E 010°39'3 6.2
2017-Sep-18 19:00N 59°55' E 010°44'3 6.6
2017-Sep-18 18:30N 59°52' E 010°39'3 6.2
2017-Sep-18 18:00N 59°55' E 010°44'3 6.5
2017-Sep-18 17:30N 59°52' E 010°39'3 6.2
2017-Sep-18 17:00N 59°55' E 010°44'3 6.5
2017-Sep-18 16:30N 59°52' E 010°39'3 6.4
2017-Sep-18 16:00N 59°55' E 010°44'3 6.4
2017-Sep-18 15:30N 59°52' E 010°39'3 6.2
2017-Sep-18 15:00N 59°55' E 010°44'2 3.3
2017-Sep-18 14:30N 59°54' E 010°41'1 1.4
2017-Sep-18 14:00N 59°54' E 010°42'1 1.4
2017-Sep-18 13:30N 59°54' E 010°41'1 1.4
2017-Sep-18 13:00N 59°54' E 010°42'1 1.9
2017-Sep-18 12:30N 59°55' E 010°44'3 6.4
2017-Sep-18 12:00N 59°52' E 010°39'3 6.1
2017-Sep-18 11:29N 59°55' E 010°44'3 6.6
2017-Sep-18 11:00N 59°52' E 010°39'3 6.1
2017-Sep-18 10:29N 59°55' E 010°44'0 0.0
2017-Sep-18 10:00N 59°55' E 010°44'1 1.2
2017-Sep-18 09:30N 59°54' E 010°43'0 0.0
2017-Sep-18 09:00N 59°54' E 010°43'0 0.4
2017-Sep-18 08:30N 59°54' E 010°43'3 5.2
2017-Sep-18 08:00N 59°52' E 010°39'3 6.3
2017-Sep-18 07:30N 59°55' E 010°44'3 6.4
2017-Sep-18 07:00N 59°52' E 010°39'3 6.3
2017-Sep-18 06:30N 59°55' E 010°44'3 6.4
2017-Sep-18 06:00N 59°52' E 010°39'3 6.3
2017-Sep-18 05:30N 59°55' E 010°44'3 6.5
2017-Sep-18 05:00N 59°52' E 010°39'3 6.3
2017-Sep-18 04:30N 59°55' E 010°44'3 6.4
2017-Sep-18 04:00N 59°52' E 010°39'3 6.3
2017-Sep-18 03:30N 59°55' E 010°44'3 6.4
2017-Sep-18 03:00N 59°52' E 010°39'0 0.0
2017-Sep-18 02:31N 59°52' E 010°39'0 0.0
2017-Sep-18 02:01N 59°52' E 010°39'0 0.0
2017-Sep-18 01:31N 59°52' E 010°39'0 0.0
2017-Sep-18 01:01N 59°52' E 010°39'0 0.0
2017-Sep-18 00:31N 59°52' E 010°39'0 0.0
2017-Sep-18 00:01N 59°52' E 010°39'2 4.6
2017-Sep-17 23:30N 59°54' E 010°43'2 4.9
2017-Sep-17 23:01N 59°52' E 010°39'3 6.3
2017-Sep-17 22:30N 59°55' E 010°44'3 6.4
2017-Sep-17 22:00N 59°52' E 010°39'3 6.3
2017-Sep-17 21:30N 59°55' E 010°44'3 6.5
2017-Sep-17 21:01N 59°52' E 010°39'3 6.2
2017-Sep-17 20:30N 59°55' E 010°44'3 6.6
2017-Sep-17 20:00N 59°52' E 010°39'3 6.4
2017-Sep-17 19:30N 59°55' E 010°44'3 6.4
2017-Sep-17 19:00N 59°52' E 010°39'3 6.3
2017-Sep-17 18:30N 59°55' E 010°44'3 6.5
2017-Sep-17 18:01N 59°52' E 010°39'3 6.2
2017-Sep-17 17:30N 59°55' E 010°44'3 6.5
2017-Sep-17 17:00N 59°52' E 010°39'3 6.4
2017-Sep-17 16:30N 59°55' E 010°44'3 6.4
2017-Sep-17 16:01N 59°52' E 010°39'3 6.4
2017-Sep-17 15:31N 59°55' E 010°44'3 6.4
2017-Sep-17 15:01N 59°52' E 010°39'3 6.3
2017-Sep-17 14:30N 59°55' E 010°44'3 6.5
2017-Sep-17 14:01N 59°52' E 010°39'3 6.3
2017-Sep-17 13:30N 59°55' E 010°44'3 6.5
2017-Sep-17 13:00N 59°52' E 010°39'3 6.2
2017-Sep-17 12:30N 59°55' E 010°44'3 6.5
2017-Sep-17 12:00N 59°52' E 010°39'3 6.2
2017-Sep-17 11:30N 59°55' E 010°44'3 6.6
2017-Sep-17 11:01N 59°52' E 010°39'3 6.3
2017-Sep-17 10:30N 59°55' E 010°44'3 6.5
2017-Sep-17 10:00N 59°52' E 010°39'3 6.4
2017-Sep-17 09:31N 59°55' E 010°44'3 6.3
2017-Sep-17 09:00N 59°52' E 010°39'3 6.3
2017-Sep-17 08:30N 59°55' E 010°44'3 6.5
2017-Sep-17 08:01N 59°52' E 010°39'3 6.3
2017-Sep-17 07:30N 59°55' E 010°44'3 6.4
2017-Sep-17 07:01N 59°52' E 010°39'3 6.3
2017-Sep-17 06:30N 59°55' E 010°44'3 6.4
2017-Sep-17 06:01N 59°52' E 010°39'3 6.2
2017-Sep-17 05:29N 59°55' E 010°44'3 6.6
2017-Sep-17 05:01N 59°52' E 010°39'3 6.4
2017-Sep-17 04:31N 59°55' E 010°44'3 6.4
2017-Sep-17 04:00N 59°52' E 010°39'0 0.0
2017-Sep-17 03:29N 59°52' E 010°39'0 0.0
2017-Sep-17 02:59N 59°52' E 010°39'0 0.0
2017-Sep-17 02:29N 59°52' E 010°39'0 0.0
2017-Sep-17 01:59N 59°52' E 010°39'3 6.5
2017-Sep-17 01:30N 59°55' E 010°44'3 6.6
2017-Sep-17 01:00N 59°52' E 010°39'3 6.3
2017-Sep-17 00:30N 59°55' E 010°44'3 6.5
2017-Sep-17 00:00N 59°52' E 010°39'3 6.3
2017-Sep-16 23:30N 59°55' E 010°44'3 6.5
2017-Sep-16 23:01N 59°52' E 010°39'3 6.2
2017-Sep-16 22:30N 59°55' E 010°44'3 6.5
2017-Sep-16 22:00N 59°52' E 010°39'  

Dump ship's entire track history